Time;durP1;ratioP1;P1;durP2;ratioP2;P2;SDS_P1;SDS_P2;PMS_P1;PMS_P2;Temp;Humidity;BMP_temperature;BMP_pressure;BME280_temperature;BME280_humidity;BME280_pressure;Samples;Min_cycle;Max_cycle;Signal;HPM_P1;HPM_P2
2024/01/05 00:00:17;;;;;;;7.20;3.47;;;5.30;95.90;;;4.21;100.00;97044.78;5040360;28;20450;-69
2024/01/05 00:02:44;;;;;;;8.20;3.10;;;5.30;96.10;;;4.25;100.00;97048.69;5042524;28;20470;-68
2024/01/05 00:05:11;;;;;;;5.53;3.30;;;5.30;96.00;;;4.22;100.00;97059.81;5048025;28;20459;-68
2024/01/05 00:07:38;;;;;;;10.37;3.80;;;5.20;95.90;;;4.29;100.00;97050.97;5034102;28;20492;-69
2024/01/05 00:10:07;;;;;;;8.20;3.00;;;5.30;96.20;;;4.24;100.00;97046.22;5058035;28;20441;-68
2024/01/05 00:12:35;;;;;;;6.30;2.97;;;5.20;96.10;;;4.21;100.00;97063.50;5042581;28;21055;-70
2024/01/05 00:15:03;;;;;;;5.20;3.00;;;5.30;96.10;;;4.21;100.00;97044.78;5040204;28;20452;-70
2024/01/05 00:17:31;;;;;;;8.90;4.10;;;5.30;95.90;;;4.30;100.00;97033.91;5045767;28;20515;-69
2024/01/05 00:19:59;;;;;;;7.70;3.37;;;5.30;96.30;;;4.24;100.00;97032.84;5045464;28;20461;-68
2024/01/05 00:22:26;;;;;;;6.70;3.80;;;5.30;96.00;;;4.28;100.00;97022.59;5036090;28;20465;-70
2024/01/05 00:24:53;;;;;;;6.13;3.07;;;5.30;96.00;;;4.13;100.00;97023.56;5043531;28;20926;-71
2024/01/05 00:27:20;;;;;;;4.70;3.23;;;5.20;95.70;;;4.05;100.00;97021.06;5045057;28;20453;-70
2024/01/05 00:29:47;;;;;;;6.13;3.47;;;5.10;95.70;;;4.01;100.00;97030.47;5038259;28;20458;-68
2024/01/05 00:32:15;;;;;;;4.03;3.13;;;5.10;96.30;;;4.13;100.00;97026.22;5033881;28;20503;-68
2024/01/05 00:34:43;;;;;;;6.03;3.40;;;5.10;97.00;;;4.10;100.00;97024.78;5043238;28;20456;-68
2024/01/05 00:37:10;;;;;;;4.97;3.27;;;5.20;96.80;;;4.21;100.00;97019.88;5042388;28;20511;-67
2024/01/05 00:39:37;;;;;;;9.50;3.77;;;5.20;96.60;;;4.08;100.00;97016.13;5038090;28;20480;-69
2024/01/05 00:42:06;;;;;;;5.47;3.10;;;5.20;96.10;;;4.22;100.00;97006.31;5041841;28;20514;-68
2024/01/05 00:44:33;;;;;;;3.30;2.47;;;5.20;96.20;;;4.15;100.00;96999.31;5043418;28;20484;-68
2024/01/05 00:47:01;;;;;;;7.47;3.37;;;5.20;95.60;;;4.15;100.00;96993.94;5042744;28;21033;-69
2024/01/05 00:49:28;;;;;;;5.03;3.63;;;5.20;95.40;;;3.66;100.00;96917.25;5044793;28;20555;-68
2024/01/05 00:51:58;;;;;;;4.10;2.63;;;5.20;95.30;;;4.11;100.00;96985.50;5038378;28;20487;-68
2024/01/05 00:54:25;;;;;;;5.40;3.30;;;5.20;95.30;;;4.07;100.00;96986.94;5045026;28;20453;-69
2024/01/05 00:56:53;;;;;;;3.70;2.90;;;5.10;95.20;;;3.97;100.00;96982.75;5044453;28;20566;-68
2024/01/05 00:59:20;;;;;;;6.33;3.17;;;5.00;95.40;;;3.88;100.00;96967.94;5043355;28;20457;-70
2024/01/05 01:01:48;;;;;;;4.63;2.87;;;5.00;95.20;;;3.71;100.00;96953.22;5044323;28;20873;-68
2024/01/05 01:04:15;;;;;;;7.97;3.03;;;4.90;95.70;;;3.28;100.00;96885.66;5044442;28;20480;-68
2024/01/05 01:06:42;;;;;;;7.70;2.83;;;4.80;95.90;;;3.62;100.00;96948.06;5044525;28;21041;-68
2024/01/05 01:09:12;;;;;;;6.70;3.17;;;4.80;96.20;;;3.60;100.00;96951.94;5058305;28;20512;-68
2024/01/05 01:11:39;;;;;;;4.20;3.17;;;4.70;96.60;;;3.63;100.00;96955.06;5055555;28;20477;-70
2024/01/05 01:14:06;;;;;;;3.23;2.17;;;4.70;96.80;;;3.51;100.00;96940.59;5049477;28;21217;-70
2024/01/05 01:16:33;;;;;;;3.93;2.73;;;4.60;97.10;;;3.49;100.00;96939.97;5038299;28;20487;-68
2024/01/05 01:19:01;;;;;;;6.90;2.33;;;4.60;97.40;;;3.48;100.00;96941.00;5044758;28;20457;-70
2024/01/05 01:21:28;;;;;;;4.30;2.70;;;4.60;97.30;;;3.51;100.00;96936.09;5060615;28;21350;-68
2024/01/05 01:23:55;;;;;;;6.40;2.37;;;4.60;97.60;;;3.54;100.00;96950.88;5045880;28;20835;-69
2024/01/05 01:26:24;;;;;;;11.00;3.40;;;4.60;97.60;;;3.50;100.00;96944.28;5043586;28;20462;-68
2024/01/05 01:28:51;;;;;;;6.53;2.67;;;4.60;97.50;;;3.24;100.00;96919.06;5045404;28;20453;-68
2024/01/05 01:31:18;;;;;;;9.33;3.03;;;4.60;97.40;;;3.49;100.00;96942.66;5040076;28;20781;-68
2024/01/05 01:33:45;;;;;;;5.40;2.23;;;4.60;97.80;;;3.47;100.00;96936.69;5041762;28;20585;-70
2024/01/05 01:36:13;;;;;;;5.63;3.23;;;4.60;97.70;;;3.47;100.00;96934.00;5043846;28;20461;-68
2024/01/05 01:38:40;;;;;;;5.07;2.77;;;4.60;97.40;;;3.50;100.00;96941.63;5043094;28;20503;-70
2024/01/05 01:41:07;;;;;;;2.70;2.37;;;4.60;97.50;;;3.45;100.00;96936.06;5043375;28;20651;-70
2024/01/05 01:43:36;;;;;;;6.53;3.10;;;4.50;97.20;;;3.45;100.00;96928.03;5039528;28;20857;-69
2024/01/05 01:46:03;;;;;;;3.67;2.60;;;4.50;97.10;;;3.48;100.00;96930.31;5043442;28;20450;-69
2024/01/05 01:48:31;;;;;;;3.60;2.40;;;4.50;96.90;;;3.39;100.00;96925.13;5040509;28;20460;-69
2024/01/05 01:50:59;;;;;;;4.83;2.73;;;4.50;96.70;;;3.42;100.00;96925.78;5037868;28;20477;-70
2024/01/05 01:53:28;;;;;;;5.30;2.67;;;4.50;97.00;;;3.43;100.00;96919.41;5041949;28;20491;-69
2024/01/05 01:55:56;;;;;;;3.60;2.80;;;4.50;97.10;;;3.44;100.00;96913.84;5039873;28;21140;-70
2024/01/05 01:58:26;;;;;;;8.00;2.30;;;4.50;96.90;;;3.45;100.00;96904.00;5037453;28;21239;-68
2024/01/05 02:00:55;;;;;;;9.77;3.00;;;4.50;97.00;;;3.34;100.00;96887.50;5034486;28;20530;-69
2024/01/05 02:03:24;;;;;;;6.63;2.80;;;4.50;96.80;;;3.37;100.00;96886.31;5037864;28;20933;-72
2024/01/05 02:05:51;;;;;;;2.97;2.43;;;4.40;96.70;;;3.35;100.00;96881.16;5041147;28;20594;-70
2024/01/05 02:08:20;;;;;;;5.47;2.60;;;4.40;96.60;;;3.38;100.00;96880.75;5048298;28;20552;-71
2024/01/05 02:10:47;;;;;;;11.87;2.50;;;4.40;96.50;;;3.28;100.00;96874.97;5045198;28;20452;-70
2024/01/05 02:13:15;;;;;;;4.13;2.80;;;4.40;96.30;;;3.28;100.00;96880.31;5041511;28;20539;-69
2024/01/05 02:15:42;;;;;;;4.30;2.43;;;4.40;96.30;;;3.21;100.00;96872.25;5046716;28;20466;-68
2024/01/05 02:18:14;;;;;;;6.40;2.70;;;4.30;96.20;;;3.19;100.00;96862.78;5038565;28;20465;-69
2024/01/05 02:20:44;;;;;;;3.03;2.27;;;4.30;96.30;;;3.10;100.00;96870.94;5042793;28;20465;-68
2024/01/05 02:23:23;;;;;;;6.07;1.97;;;4.30;96.40;;;3.03;100.00;96866.56;5044577;28;20472;-69
2024/01/05 02:25:51;;;;;;;5.37;3.23;;;4.20;96.50;;;3.02;100.00;96863.09;5032469;28;20464;-69
2024/01/05 02:28:19;;;;;;;3.60;2.47;;;4.20;97.00;;;2.97;100.00;96865.53;5051995;28;20799;-69
2024/01/05 02:30:47;;;;;;;4.87;2.43;;;4.10;96.90;;;2.94;100.00;96852.56;5042901;28;20520;-70
2024/01/05 02:33:14;;;;;;;5.53;2.63;;;4.10;97.20;;;2.86;100.00;96850.06;5041860;28;20562;-70
2024/01/05 02:35:41;;;;;;;4.37;2.30;;;4.00;97.40;;;2.76;100.00;96853.06;5054878;28;20468;-68
2024/01/05 02:38:09;;;;;;;3.07;2.37;;;4.00;97.60;;;2.78;100.00;96846.50;5030113;28;20505;-69
2024/01/05 02:40:37;;;;;;;9.67;3.13;;;3.90;97.80;;;2.74;100.00;96847.91;5045010;28;20534;-69
2024/01/05 02:43:05;;;;;;;5.57;2.43;;;3.90;98.10;;;2.76;100.00;96842.41;5042329;28;20441;-69
2024/01/05 02:45:34;;;;;;;3.60;2.20;;;3.90;98.30;;;2.78;100.00;96846.50;5041075;28;20515;-69
2024/01/05 02:48:01;;;;;;;4.90;2.30;;;3.90;98.20;;;2.76;100.00;96847.75;5040474;28;20548;-69
2024/01/05 02:50:29;;;;;;;6.60;2.17;;;3.90;98.20;;;2.76;100.00;96858.41;5038202;28;20460;-69
2024/01/05 02:52:59;;;;;;;7.23;2.90;;;3.90;98.20;;;2.72;100.00;96855.28;5021424;28;20470;-72
2024/01/05 02:55:26;;;;;;;4.60;1.90;;;3.90;97.90;;;2.75;100.00;96849.56;5045010;28;20844;-69
2024/01/05 02:57:55;;;;;;;6.63;2.80;;;3.90;97.80;;;2.75;100.00;96854.91;5031015;28;20457;-70
2024/01/05 03:00:22;;;;;;;6.33;2.47;;;3.90;97.50;;;2.79;100.00;96858.00;5033635;28;20457;-69
2024/01/05 03:02:50;;;;;;;4.70;2.37;;;3.90;97.30;;;2.82;100.00;96874.47;5037677;28;20457;-70
2024/01/05 03:05:17;;;;;;;3.23;2.27;;;3.90;97.40;;;2.89;100.00;96881.69;5042364;28;20472;-69
2024/01/05 03:07:44;;;;;;;6.17;2.30;;;3.90;97.50;;;2.91;100.00;96871.63;5031705;28;20473;-67
2024/01/05 03:10:12;;;;;;;5.60;2.37;;;4.00;97.50;;;3.00;100.00;96872.31;5039574;28;20453;-68
2024/01/05 03:12:39;;;;;;;3.50;2.27;;;4.00;97.20;;;3.00;100.00;96869.63;5038982;28;20549;-68
2024/01/05 03:15:10;;;;;;;5.73;2.23;;;4.00;96.70;;;2.98;100.00;96875.19;5045445;28;20461;-71
2024/01/05 03:17:37;;;;;;;5.80;2.23;;;4.10;96.30;;;2.97;100.00;96884.22;5047591;28;20465;-69
2024/01/05 03:20:05;;;;;;;4.53;2.33;;;4.00;96.00;;;2.63;100.00;96841.28;5037880;28;20453;-68
2024/01/05 03:22:32;;;;;;;5.70;2.40;;;4.00;96.00;;;2.93;100.00;96882.94;5036761;28;23394;-67
2024/01/05 03:24:59;;;;;;;9.33;2.43;;;4.00;95.80;;;2.99;100.00;96884.84;5047795;28;20515;-68
2024/01/05 03:27:27;;;;;;;4.60;3.10;;;4.10;95.70;;;3.01;100.00;96861.44;5038411;28;20896;-68
2024/01/05 03:29:57;;;;;;;7.60;2.53;;;4.10;95.20;;;3.07;100.00;96849.97;5041075;28;20516;-69
2024/01/05 03:32:27;;;;;;;4.67;2.50;;;4.10;95.00;;;2.99;100.00;96826.13;5042465;28;21034;-68
2024/01/05 03:34:55;;;;;;;4.10;2.73;;;4.20;94.60;;;3.10;100.00;96830.91;5056792;28;20514;-69
2024/01/05 03:37:22;;;;;;;4.30;2.20;;;4.20;94.60;;;3.03;100.00;96843.41;5040801;28;20518;-68
2024/01/05 03:39:49;;;;;;;4.33;2.40;;;4.20;94.40;;;3.16;100.00;96831.16;5034824;28;20481;-69
2024/01/05 03:42:18;;;;;;;4.57;2.57;;;4.20;94.80;;;3.19;100.00;96812.91;5039501;28;21290;-68
2024/01/05 03:44:50;;;;;;;4.97;2.83;;;4.20;94.50;;;3.11;100.00;96795.22;5050597;28;20476;-68
2024/01/05 03:47:20;;;;;;;3.10;2.40;;;4.20;94.20;;;3.14;100.00;96790.50;5040240;28;20465;-68
2024/01/05 03:52:33;;;;;;;6.47;3.20;;;4.20;94.10;;;3.09;100.00;96746.50;5038572;28;21003;-67
2024/01/05 03:55:01;;;;;;;5.00;1.93;;;4.20;94.00;;;3.14;100.00;96718.44;5043008;28;20859;-69
2024/01/05 03:57:30;;;;;;;5.77;2.40;;;4.30;93.90;;;3.28;100.00;96765.50;5041590;28;20473;-68
2024/01/05 03:59:58;;;;;;;4.30;2.20;;;4.30;93.90;;;3.22;100.00;96752.94;5042865;28;20460;-68
2024/01/05 04:02:25;;;;;;;3.60;2.50;;;4.30;93.60;;;3.24;100.00;96753.56;5037191;28;20440;-68
2024/01/05 04:04:54;;;;;;;5.60;2.60;;;4.30;93.50;;;3.16;100.00;96735.88;5043496;28;20722;-68
2024/01/05 04:07:21;;;;;;;4.40;2.40;;;4.30;93.50;;;3.19;100.00;96729.31;5035057;28;20497;-67
2024/01/05 04:09:50;;;;;;;6.27;2.77;;;4.30;93.60;;;3.16;100.00;96746.53;5059282;28;20561;-69
2024/01/05 04:12:18;;;;;;;4.83;2.70;;;4.30;93.40;;;3.20;100.00;96750.47;5038584;28;20453;-68
2024/01/05 04:14:46;;;;;;;8.10;2.50;;;4.30;93.40;;;3.28;100.00;96754.81;5047969;28;20571;-70
2024/01/05 04:17:13;;;;;;;5.33;2.20;;;4.30;93.50;;;3.20;100.00;96758.50;5047337;28;20815;-68
2024/01/05 04:19:40;;;;;;;4.67;2.17;;;4.30;93.30;;;3.17;100.00;96763.41;5039051;28;20512;-68
2024/01/05 04:22:09;;;;;;;2.93;2.53;;;4.30;93.30;;;3.15;100.00;96754.75;5055794;28;21020;-68
2024/01/05 04:24:36;;;;;;;7.60;2.57;;;4.30;93.20;;;3.10;100.00;96752.69;5036352;28;20486;-68
2024/01/05 04:27:04;;;;;;;4.87;2.73;;;4.20;93.40;;;3.03;100.00;96743.81;5036253;28;20501;-69
2024/01/05 04:29:31;;;;;;;6.57;2.23;;;4.20;93.40;;;3.10;100.00;96748.16;5031360;28;20510;-70
2024/01/05 04:31:58;;;;;;;5.80;2.43;;;4.20;93.60;;;3.04;100.00;96754.31;5038775;28;20472;-67
2024/01/05 04:34:27;;;;;;;5.03;2.77;;;4.20;93.40;;;3.04;100.00;96745.50;5037216;28;20501;-68
2024/01/05 04:36:55;;;;;;;8.60;3.13;;;4.20;93.60;;;3.02;100.00;96750.19;5034144;28;20976;-68
2024/01/05 04:39:23;;;;;;;3.40;2.40;;;4.10;93.80;;;3.00;100.00;96755.72;5037483;28;20458;-68
2024/01/05 04:41:50;;;;;;;3.50;2.30;;;4.10;93.70;;;2.51;100.00;96685.50;5044830;28;20518;-68
2024/01/05 04:44:17;;;;;;;4.33;2.13;;;4.10;93.80;;;2.88;100.00;96749.31;5047046;28;20503;-69
2024/01/05 04:46:45;;;;;;;4.60;2.60;;;4.00;94.00;;;2.83;100.00;96741.88;5051960;28;20447;-68
2024/01/05 04:49:12;;;;;;;5.10;2.77;;;4.00;94.30;;;2.87;100.00;96750.31;5064568;28;20454;-68
2024/01/05 04:51:40;;;;;;;6.43;2.70;;;4.00;94.50;;;2.82;100.00;96733.06;5042698;28;20543;-69
2024/01/05 04:54:07;;;;;;;9.57;2.87;;;4.00;94.50;;;2.82;100.00;96719.72;5038812;28;20534;-70
2024/01/05 04:56:36;;;;;;;4.17;2.60;;;4.00;94.40;;;2.81;100.00;96718.09;5043328;28;20553;-68
2024/01/05 04:59:03;;;;;;;4.13;2.40;;;4.00;94.50;;;2.79;100.00;96714.78;5033215;28;20460;-68
2024/01/05 05:01:31;;;;;;;6.60;2.87;;;4.00;94.50;;;2.78;100.00;96718.47;5037812;28;20832;-68
2024/01/05 05:03:58;;;;;;;3.30;2.53;;;4.00;94.50;;;2.83;100.00;96699.19;5046083;28;20463;-68
2024/01/05 05:06:27;;;;;;;5.47;2.60;;;4.00;94.70;;;2.78;100.00;96697.13;5032210;28;20515;-68
2024/01/05 05:08:54;;;;;;;3.77;2.50;;;3.90;94.40;;;2.71;100.00;96692.78;5036788;28;20463;-71
2024/01/05 05:11:21;;;;;;;5.10;2.23;;;3.90;94.50;;;2.72;100.00;96692.59;5035906;28;20467;-67
2024/01/05 05:13:50;;;;;;;6.50;2.90;;;3.90;94.60;;;2.80;100.00;96697.75;5036639;28;20481;-68
2024/01/05 05:16:18;;;;;;;4.10;2.20;;;3.90;94.60;;;2.79;100.00;96693.44;5044151;28;20456;-68
2024/01/05 05:18:47;;;;;;;6.57;2.67;;;3.90;94.40;;;2.73;100.00;96702.22;5045503;28;20455;-69
2024/01/05 05:21:14;;;;;;;6.83;2.80;;;3.90;94.20;;;2.79;100.00;96698.75;5046138;28;20959;-68
2024/01/05 05:23:41;;;;;;;3.93;2.27;;;3.90;94.40;;;2.72;100.00;96708.59;5047001;28;20461;-68
2024/01/05 05:26:09;;;;;;;7.53;3.47;;;3.90;94.00;;;2.69;100.00;96698.31;5043780;28;20468;-69
2024/01/05 05:28:36;;;;;;;8.53;3.10;;;3.90;94.30;;;2.72;100.00;96697.91;5045814;28;20971;-68
2024/01/05 05:31:07;;;;;;;6.77;3.07;;;3.80;94.40;;;2.69;100.00;96693.00;5045239;28;20836;-68
2024/01/05 05:33:35;;;;;;;3.83;2.37;;;3.80;94.30;;;2.64;100.00;96706.06;5047145;28;20564;-70
2024/01/05 05:36:02;;;;;;;7.87;3.37;;;3.80;94.30;;;2.62;100.00;96702.78;5047168;28;20960;-68
2024/01/05 05:38:37;;;;;;;3.63;2.47;;;3.80;94.30;;;2.62;100.00;96716.94;5045533;28;20449;-67
2024/01/05 05:41:05;;;;;;;4.97;2.90;;;3.80;94.30;;;2.60;100.00;96723.50;5044477;28;20530;-68
2024/01/05 05:43:32;;;;;;;5.93;2.73;;;3.70;94.00;;;2.53;100.00;96723.44;5044945;28;20496;-69
2024/01/05 05:45:58;;;;;;;3.27;2.83;;;3.70;94.20;;;2.55;100.00;96730.25;5045097;28;20559;-69
2024/01/05 05:48:30;;;;;;;4.53;3.00;;;3.70;94.00;;;2.57;100.00;96731.91;5042992;28;20452;-68
2024/01/05 05:50:57;;;;;;;9.10;2.80;;;3.70;94.20;;;2.59;100.00;96736.03;5042804;28;20533;-69
2024/01/05 05:53:24;;;;;;;4.37;2.93;;;3.70;94.30;;;2.52;100.00;96730.66;5051851;28;20483;-68
2024/01/05 05:55:52;;;;;;;5.17;3.00;;;3.70;94.20;;;2.52;100.00;96729.81;5033753;28;20467;-69
2024/01/05 05:58:19;;;;;;;7.53;3.57;;;3.60;94.40;;;2.60;100.00;96727.00;5042843;28;20490;-69
2024/01/05 06:00:46;;;;;;;6.00;2.83;;;3.70;94.40;;;2.58;100.00;96729.03;5042743;28;20464;-68
2024/01/05 06:03:13;;;;;;;5.53;2.90;;;3.70;93.90;;;2.63;100.00;96736.44;5044348;28;20469;-69
2024/01/05 06:05:43;;;;;;;10.00;3.33;;;3.70;93.90;;;2.65;100.00;96724.56;5049124;28;21088;-71
2024/01/05 06:08:10;;;;;;;3.67;2.93;;;3.70;93.90;;;2.67;100.00;96727.03;5039352;28;20445;-70
2024/01/05 06:10:38;;;;;;;5.63;3.10;;;3.80;93.40;;;2.71;100.00;96728.28;5041372;28;20514;-69
2024/01/05 06:13:05;;;;;;;7.67;3.13;;;3.80;93.00;;;2.70;100.00;96726.63;5044532;28;20502;-69
2024/01/05 06:15:32;;;;;;;9.13;3.10;;;3.80;92.80;;;2.69;100.00;96719.66;5045924;28;20447;-69
2024/01/05 06:18:00;;;;;;;8.23;3.83;;;3.80;92.60;;;2.77;100.00;96724.00;5045592;28;20460;-68
2024/01/05 06:20:27;;;;;;;3.97;2.70;;;3.80;92.50;;;2.70;99.97;96715.97;5046676;28;20960;-69
2024/01/05 06:22:55;;;;;;;7.30;2.70;;;3.80;92.30;;;2.80;100.00;96719.06;5038390;28;20464;-70
2024/01/05 06:25:23;;;;;;;5.70;3.60;;;3.80;92.30;;;2.76;100.00;96723.16;5049397;28;20793;-69
2024/01/05 06:27:52;;;;;;;5.33;2.80;;;3.80;92.10;;;2.75;99.87;96721.53;5039601;28;20518;-68
2024/01/05 06:30:22;;;;;;;2.90;2.50;;;3.80;92.10;;;2.72;99.67;96713.09;5039560;28;21160;-70
2024/01/05 06:32:50;;;;;;;3.33;2.40;;;3.90;91.80;;;2.73;99.80;96747.56;5032319;28;20584;-69
2024/01/05 06:35:17;;;;;;;7.33;2.77;;;3.80;91.60;;;2.74;99.90;96733.22;5036251;28;20492;-68
2024/01/05 06:37:44;;;;;;;4.80;2.83;;;3.80;91.90;;;2.75;98.64;96729.53;5040057;28;20447;-67
2024/01/05 06:40:16;;;;;;;8.10;2.70;;;3.80;91.60;;;2.75;98.67;96723.38;5039100;28;20461;-68
2024/01/05 06:42:43;;;;;;;5.30;2.40;;;3.90;91.40;;;2.73;98.20;96714.72;5039200;28;20625;-67
2024/01/05 06:45:11;;;;;;;7.77;3.60;;;3.90;91.10;;;2.80;97.85;96721.75;5034179;28;20462;-67
2024/01/05 06:47:39;;;;;;;7.33;2.60;;;3.90;90.80;;;2.80;98.33;96724.41;5034984;28;20461;-67
2024/01/05 06:50:08;;;;;;;5.10;2.57;;;3.90;90.70;;;2.72;98.09;96721.94;5037625;28;20465;-70
2024/01/05 06:52:35;;;;;;;6.40;2.50;;;3.90;90.60;;;2.79;97.91;96725.44;5044546;28;20487;-69
2024/01/05 06:55:03;;;;;;;3.27;2.33;;;3.90;90.70;;;2.73;98.35;96720.91;5038156;28;20627;-68
2024/01/05 06:57:35;;;;;;;6.73;2.77;;;3.90;90.70;;;2.75;98.29;96721.53;5028465;28;20460;-67
2024/01/05 07:00:03;;;;;;;4.57;2.43;;;3.80;91.10;;;2.66;97.79;96720.06;5038403;28;20457;-77
2024/01/05 07:02:33;;;;;;;4.57;2.20;;;3.70;91.20;;;2.51;99.09;96717.50;5035245;28;20983;-69
2024/01/05 07:05:00;;;;;;;7.63;3.00;;;3.60;91.60;;;2.43;99.75;96721.16;5044469;28;20544;-69
2024/01/05 07:07:28;;;;;;;5.10;2.60;;;3.60;91.80;;;2.39;100.00;96720.69;5055009;28;20535;-68
2024/01/05 07:09:56;;;;;;;4.30;2.57;;;3.50;92.00;;;2.39;100.00;96723.38;5031535;28;20525;-68
2024/01/05 07:12:23;;;;;;;5.87;2.47;;;3.50;92.50;;;2.42;100.00;96716.81;5040140;28;20459;-70
2024/01/05 07:14:52;;;;;;;8.93;2.97;;;3.50;92.80;;;2.40;100.00;96705.53;5036237;28;20474;-70
2024/01/05 07:17:19;;;;;;;5.47;2.67;;;3.50;92.60;;;2.48;100.00;96710.69;5033168;28;20456;-85
2024/01/05 07:19:46;;;;;;;5.80;2.63;;;3.50;92.70;;;2.51;100.00;96723.66;5048761;28;20820;-71
2024/01/05 07:22:14;;;;;;;4.47;2.90;;;3.50;92.60;;;2.61;100.00;96733.13;5039405;28;20469;-71
2024/01/05 07:24:41;;;;;;;3.53;3.03;;;3.60;92.80;;;2.46;100.00;96726.06;5034858;28;20461;-70
2024/01/05 07:27:09;;;;;;;4.03;2.43;;;3.60;92.30;;;2.55;99.81;96737.41;5043667;28;20467;-68
2024/01/05 07:29:36;;;;;;;6.43;2.80;;;3.60;92.30;;;2.48;99.52;96745.38;5053215;28;21031;-69
2024/01/05 07:32:06;;;;;;;6.33;4.10;;;3.60;91.80;;;2.06;99.46;96678.66;5035419;28;20449;-70
2024/01/05 07:34:33;;;;;;;4.30;2.70;;;3.60;91.70;;;2.57;99.41;96737.22;5043511;28;20829;-70
2024/01/05 07:37:00;;;;;;;3.93;3.10;;;3.60;92.00;;;2.28;99.47;96683.09;5043038;28;20471;-70
2024/01/05 07:39:28;;;;;;;7.07;3.00;;;3.70;91.90;;;2.66;99.67;96730.72;5049556;28;20865;-71
2024/01/05 07:41:55;;;;;;;6.63;3.00;;;3.70;92.10;;;2.24;98.23;96680.84;5038507;28;20461;-71
2024/01/05 07:44:22;;;;;;;3.60;2.27;;;3.60;91.40;;;2.63;98.56;96721.28;5044114;28;20448;-71
2024/01/05 07:46:49;;;;;;;4.23;2.37;;;3.60;91.80;;;2.34;98.90;96668.97;5044928;28;20456;-70
2024/01/05 07:49:18;;;;;;;4.60;2.90;;;3.70;92.00;;;2.67;98.66;96722.50;5050399;28;20463;-70
2024/01/05 07:51:45;;;;;;;6.60;3.87;;;3.70;91.50;;;2.93;99.55;96715.66;5035883;28;20650;-71
2024/01/05 07:54:13;;;;;;;4.93;2.67;;;3.90;92.70;;;2.82;97.61;96722.41;5034963;28;20853;-66
2024/01/05 07:56:40;;;;;;;2.77;2.20;;;3.90;91.60;;;2.92;97.69;96726.53;5033041;28;20471;-67
2024/01/05 07:59:07;;;;;;;6.10;3.00;;;3.90;91.60;;;2.96;97.73;96730.47;5039486;28;20454;-67
2024/01/05 08:01:34;;;;;;;4.33;2.80;;;3.90;91.30;;;3.16;99.06;96725.19;5038045;28;20569;-67
2024/01/05 08:04:02;;;;;;;12.90;3.23;;;4.00;92.30;;;3.02;98.58;96723.50;5037239;28;20936;-68
2024/01/05 08:06:31;;;;;;;7.37;3.07;;;4.00;91.80;;;3.00;98.93;96734.38;5043040;28;20541;-68
2024/01/05 08:08:58;;;;;;;5.10;2.50;;;3.90;92.10;;;3.04;99.00;96732.94;5024208;28;20457;-67
2024/01/05 08:11:26;;;;;;;3.27;2.77;;;3.90;92.30;;;3.25;97.14;96739.19;5037003;28;20452;-68
2024/01/05 08:13:53;;;;;;;7.73;3.70;;;4.10;92.50;;;3.30;95.38;96726.06;5039413;28;20575;-68
2024/01/05 08:16:25;;;;;;;8.57;3.30;;;4.20;91.50;;;3.65;98.18;96725.94;5044450;28;20462;-67
2024/01/05 08:18:54;;;;;;;6.90;2.90;;;4.50;92.20;;;3.73;94.17;96724.13;5040608;28;20456;-68
2024/01/05 08:21:21;;;;;;;5.00;2.70;;;4.60;91.00;;;3.93;94.63;96727.63;5039193;28;20475;-67
2024/01/05 08:23:50;;;;;;;7.37;3.60;;;4.70;90.30;;;3.89;90.71;96729.06;5036564;28;21860;-68
2024/01/05 08:26:20;;;;;;;6.23;2.63;;;4.80;89.00;;;3.79;89.78;96725.97;5037152;28;21033;-68
2024/01/05 08:28:47;;;;;;;4.63;2.33;;;4.80;87.30;;;3.82;89.56;96730.91;5040238;28;20452;-67
2024/01/05 08:31:14;;;;;;;4.67;2.43;;;4.90;86.10;;;3.97;89.74;96731.53;5051033;28;20459;-68
2024/01/05 08:33:43;;;;;;;7.77;3.20;;;4.90;85.80;;;3.95;87.26;96728.25;5052677;28;20841;-67
2024/01/05 08:36:10;;;;;;;8.40;2.47;;;5.00;85.20;;;3.94;87.77;96721.25;5044321;28;20459;-68
2024/01/05 08:38:38;;;;;;;3.30;2.80;;;4.90;84.70;;;3.89;87.75;96729.06;5047681;28;20467;-67
2024/01/05 08:41:06;;;;;;;2.87;2.30;;;5.00;84.30;;;4.02;87.38;96720.22;5041892;28;20523;-67
2024/01/05 08:43:34;;;;;;;7.13;3.20;;;5.00;84.10;;;4.22;86.99;96717.56;5048719;28;20453;-67
2024/01/05 08:46:02;;;;;;;3.90;2.80;;;5.10;84.30;;;4.33;85.21;96718.78;5047124;28;20527;-68
2024/01/05 08:48:29;;;;;;;3.40;2.27;;;5.30;83.70;;;4.21;85.91;96723.94;5046857;28;20963;-68
2024/01/05 08:50:56;;;;;;;6.20;2.63;;;5.30;83.30;;;4.50;84.55;96724.53;5041283;28;20462;-67
2024/01/05 08:53:23;;;;;;;8.13;2.90;;;5.40;83.40;;;4.42;84.56;96716.69;5046638;28;20453;-67
2024/01/05 08:55:51;;;;;;;4.17;2.40;;;5.40;82.90;;;4.51;83.31;96719.97;5044730;28;20477;-67
2024/01/05 08:58:19;;;;;;;4.43;1.87;;;5.50;82.60;;;4.48;83.51;96726.59;5046122;28;20437;-66
2024/01/05 09:00:46;;;;;;;5.00;2.77;;;5.50;82.50;;;4.44;84.37;96722.66;5044806;28;20449;-67
2024/01/05 09:03:14;;;;;;;5.50;2.60;;;5.50;82.90;;;4.34;84.18;96717.75;5046253;28;20450;-68
2024/01/05 09:05:46;;;;;;;4.10;2.57;;;5.40;82.50;;;4.56;83.55;96728.22;5042151;28;20470;-67
2024/01/05 09:08:15;;;;;;;4.57;3.53;;;5.50;82.50;;;4.74;82.87;96735.56;5045678;28;20455;-67
2024/01/05 09:10:44;;;;;;;4.90;3.23;;;5.60;82.10;;;4.71;81.91;96737.88;5037054;28;20465;-67
2024/01/05 09:13:11;;;;;;;6.73;3.67;;;5.70;81.80;;;4.78;81.54;96730.63;5043968;28;20457;-68
2024/01/05 09:15:39;;;;;;;4.87;3.07;;;5.80;81.60;;;4.79;81.01;96727.75;5040258;28;20490;-69
2024/01/05 09:18:07;;;;;;;9.40;3.13;;;5.80;81.10;;;4.68;81.11;96728.41;5034583;28;20453;-67
2024/01/05 09:20:34;;;;;;;3.90;2.37;;;5.80;80.90;;;4.92;80.73;96723.38;5044031;28;20551;-68
2024/01/05 09:23:01;;;;;;;4.17;2.40;;;5.80;81.20;;;4.97;80.80;96724.38;5041638;28;20468;-67
2024/01/05 09:25:30;;;;;;;5.23;2.47;;;5.90;81.00;;;5.07;79.50;96729.28;5046327;28;20493;-66
2024/01/05 09:28:01;;;;;;;4.33;2.23;;;6.00;80.60;;;5.04;79.60;96713.66;5046865;28;20450;-66
2024/01/05 09:30:28;;;;;;;4.20;2.47;;;6.10;80.20;;;5.10;79.58;96718.19;5038110;28;20460;-68
2024/01/05 09:32:58;;;;;;;3.10;2.13;;;6.10;80.10;;;5.16;78.99;96721.03;5045365;28;20457;-66
2024/01/05 09:35:26;;;;;;;4.00;1.90;;;6.20;79.90;;;5.28;77.57;96713.97;5043150;28;20487;-68
2024/01/05 09:37:53;;;;;;;3.67;1.90;;;6.20;79.40;;;4.81;77.42;96661.47;5029851;28;20437;-67
2024/01/05 09:40:21;;;;;;;5.60;2.00;;;6.20;79.10;;;5.14;77.25;96713.19;5043217;28;20461;-67
2024/01/05 09:42:51;;;;;;;4.03;2.03;;;6.20;79.00;;;5.15;76.66;96719.38;5047352;28;20457;-67
2024/01/05 09:45:21;;;;;;;2.50;1.67;;;6.20;78.60;;;5.26;77.09;96721.41;5044152;28;20450;-67
2024/01/05 09:47:50;;;;;;;4.53;2.13;;;6.20;78.60;;;5.14;77.06;96713.19;5046247;28;20536;-68
2024/01/05 09:50:19;;;;;;;3.60;2.00;;;6.20;78.40;;;5.07;77.13;96707.06;5045123;28;20466;-68
2024/01/05 09:52:46;;;;;;;4.93;1.90;;;6.10;78.50;;;5.19;76.79;96693.81;5046393;28;20457;-68
2024/01/05 09:55:13;;;;;;;2.80;1.77;;;6.20;78.50;;;5.26;75.51;96694.63;5045217;28;21012;-68
2024/01/05 09:57:42;;;;;;;2.10;1.50;;;6.20;77.90;;;5.32;75.55;96688.41;5045033;28;20453;-67
2024/01/05 10:00:15;;;;;;;3.20;1.83;;;6.30;77.80;;;5.31;75.31;96681.41;5046984;28;20491;-65
2024/01/05 10:02:49;;;;;;;2.43;2.00;;;6.40;77.70;;;5.30;75.59;96693.16;5044628;28;20870;-68
2024/01/05 10:05:18;;;;;;;2.40;1.40;;;6.40;77.60;;;5.63;74.81;96688.66;5045260;28;20908;-68
2024/01/05 10:07:46;;;;;;;2.93;1.70;;;6.50;77.50;;;5.71;74.30;96683.00;5042601;28;20464;-68
2024/01/05 10:10:14;;;;;;;1.53;1.33;;;6.60;77.40;;;5.57;74.14;96676.94;5042952;28;20825;-66
2024/01/05 10:12:41;;;;;;;2.37;1.47;;;6.60;76.90;;;5.60;73.80;96679.16;5039148;28;20543;-68
2024/01/05 10:15:12;;;;;;;6.50;1.77;;;6.70;76.70;;;5.68;73.21;96681.56;5062003;28;20481;-68
2024/01/05 10:17:40;;;;;;;3.20;1.57;;;6.70;76.40;;;5.72;73.28;96686.53;5043566;28;20462;-68
2024/01/05 10:20:16;;;;;;;2.30;1.33;;;6.70;76.20;;;5.77;73.38;96684.00;5045263;28;20449;-68
2024/01/05 10:22:46;;;;;;;4.37;1.80;;;6.80;76.30;;;5.94;72.87;96685.09;5042013;28;20453;-68
2024/01/05 10:25:18;;;;;;;3.13;1.57;;;6.90;76.30;;;5.96;72.76;96685.69;5034708;28;20504;-66
2024/01/05 10:27:49;;;;;;;2.57;2.13;;;6.90;76.30;;;6.11;72.50;96684.59;5042309;28;20445;-67
2024/01/05 10:30:28;;;;;;;3.67;1.90;;;7.00;76.30;;;5.78;72.64;96632.03;5044448;28;20461;-65
2024/01/05 10:33:07;;;;;;;2.73;1.80;;;7.10;76.00;;;6.04;72.18;96668.56;5037077;28;20455;-68